createdAt,value
2022-10-20T00:03:20.119Z,20.25
2022-10-20T00:08:35.439Z,20.27
2022-10-20T00:13:50.283Z,20.29
2022-10-20T00:19:05.336Z,20.31
2022-10-20T00:24:20.307Z,20.31
2022-10-20T00:29:35.316Z,20.29
2022-10-20T00:34:50.657Z,20.28
2022-10-20T00:40:06.588Z,20.29
2022-10-20T00:45:22.347Z,20.30
2022-10-20T00:50:37.321Z,20.31
2022-10-20T00:55:52.321Z,20.31
2022-10-20T01:01:07.656Z,20.32
2022-10-20T01:07:01.640Z,20.31
2022-10-20T01:12:17.736Z,20.28
2022-10-20T01:17:33.481Z,20.28
2022-10-20T01:22:49.277Z,20.29
2022-10-20T01:28:04.332Z,20.28
2022-10-20T01:33:19.328Z,20.26
2022-10-20T01:38:34.309Z,20.26
2022-10-20T01:43:49.319Z,20.25
2022-10-20T01:49:04.299Z,20.24
2022-10-20T01:54:19.312Z,20.26
2022-10-20T01:59:34.343Z,20.24
2022-10-20T02:04:49.598Z,20.21
2022-10-20T02:10:05.571Z,20.20
2022-10-20T02:15:22.536Z,20.21
2022-10-20T02:20:38.292Z,20.19
2022-10-20T02:25:53.062Z,20.19
2022-10-20T02:31:12.644Z,20.20
2022-10-20T02:36:28.321Z,20.17
2022-10-20T02:41:43.282Z,20.17
2022-10-20T02:46:58.305Z,20.22
2022-10-20T02:52:13.292Z,20.24
2022-10-20T02:57:28.315Z,20.24
2022-10-20T03:02:43.090Z,20.21
2022-10-20T03:07:58.290Z,20.18
2022-10-20T03:13:13.380Z,20.17
2022-10-20T03:18:28.616Z,20.16
2022-10-20T03:23:44.610Z,20.15
2022-10-20T03:29:00.310Z,20.17
2022-10-20T03:34:15.129Z,20.19
2022-10-20T03:39:30.314Z,20.17
2022-10-20T03:44:45.602Z,20.14
2022-10-20T03:50:01.377Z,20.13
2022-10-20T03:55:16.286Z,20.10
2022-10-20T04:00:31.368Z,20.11
2022-10-20T04:05:46.606Z,20.12
2022-10-20T04:11:02.381Z,20.12
2022-10-20T04:16:17.369Z,20.04
2022-10-20T04:21:32.374Z,19.95
2022-10-20T04:26:47.442Z,19.88
2022-10-20T04:32:02.312Z,19.83
2022-10-20T04:37:17.376Z,19.80
2022-10-20T04:42:32.645Z,19.74
2022-10-20T04:47:48.372Z,19.70
2022-10-20T04:53:03.678Z,19.66
2022-10-20T04:58:19.339Z,19.65
2022-10-20T05:03:34.662Z,19.63
2022-10-20T05:08:50.367Z,19.61
2022-10-20T05:14:05.322Z,19.59
2022-10-20T05:19:20.311Z,19.57
2022-10-20T05:24:35.370Z,19.55
2022-10-20T05:29:50.357Z,19.54
2022-10-20T05:35:05.338Z,19.55
2022-10-20T05:40:20.342Z,19.53
2022-10-20T05:45:35.313Z,19.52
2022-10-20T05:50:50.710Z,19.51
2022-10-20T05:56:06.308Z,19.49
2022-10-20T06:01:21.545Z,19.49
2022-10-20T06:06:37.432Z,19.47
2022-10-20T06:11:52.850Z,19.47
2022-10-20T06:17:08.319Z,19.44
2022-10-20T06:22:23.282Z,19.43
2022-10-20T06:27:38.419Z,19.43
2022-10-20T06:32:53.394Z,19.41
2022-10-20T06:38:08.358Z,19.42
2022-10-20T06:43:24.324Z,19.40
2022-10-20T06:48:40.328Z,19.40
2022-10-20T06:53:55.339Z,19.39
2022-10-20T06:59:10.604Z,19.39
2022-10-20T07:04:26.308Z,19.38
2022-10-20T07:09:41.679Z,19.37
2022-10-20T07:14:57.588Z,19.35
2022-10-20T07:20:13.318Z,19.36
2022-10-20T07:25:28.322Z,19.35
2022-10-20T07:30:43.371Z,19.34
2022-10-20T07:35:58.297Z,19.34
2022-10-20T07:41:13.077Z,19.33
2022-10-20T07:46:28.386Z,19.34
2022-10-20T07:51:43.440Z,19.33
2022-10-20T07:56:58.705Z,19.33
2022-10-20T08:02:14.604Z,19.33
2022-10-20T08:07:30.367Z,19.32
2022-10-20T08:12:45.325Z,19.33
2022-10-20T08:18:00.874Z,19.31
2022-10-20T08:23:16.632Z,19.31
2022-10-20T08:28:32.328Z,19.31
2022-10-20T08:33:52.144Z,19.31
2022-10-20T08:39:09.568Z,19.31
2022-10-20T08:44:24.351Z,19.30
2022-10-20T08:49:39.436Z,19.29
2022-10-20T08:54:55.536Z,19.30
2022-10-20T09:00:10.330Z,19.30
2022-10-20T09:05:25.304Z,19.31
2022-10-20T09:10:40.639Z,19.30
2022-10-20T09:15:56.354Z,19.31
2022-10-20T09:21:11.349Z,19.31
2022-10-20T09:26:44.986Z,19.31
2022-10-20T09:32:16.694Z,19.31
2022-10-20T09:37:36.422Z,19.32
2022-10-20T09:42:51.360Z,19.32
2022-10-20T09:48:06.397Z,19.32
2022-10-20T09:53:21.341Z,19.31
2022-10-20T09:58:36.612Z,19.32
2022-10-20T10:03:52.323Z,19.32
2022-10-20T10:09:07.881Z,19.34
2022-10-20T10:14:23.340Z,19.34
2022-10-20T10:19:38.449Z,19.32
2022-10-20T10:24:53.670Z,19.33
2022-10-20T10:30:09.370Z,19.33
2022-10-20T10:35:24.816Z,19.34
2022-10-20T10:40:40.680Z,19.33
2022-10-20T10:45:56.409Z,19.34
2022-10-20T10:51:11.314Z,19.33
2022-10-20T10:56:26.341Z,19.34
2022-10-20T11:01:41.633Z,19.34
2022-10-20T11:06:58.191Z,19.33
2022-10-20T11:12:13.345Z,19.33
2022-10-20T11:17:28.350Z,19.34
2022-10-20T11:22:43.410Z,19.34
2022-10-20T11:27:58.447Z,19.34
2022-10-20T11:33:14.447Z,19.33
2022-10-20T11:38:29.707Z,19.34
2022-10-20T11:43:45.332Z,19.33
2022-10-20T11:49:03.948Z,19.33
2022-10-20T11:54:19.366Z,19.34
2022-10-20T11:59:34.416Z,19.34
2022-10-20T12:04:49.363Z,19.34
2022-10-20T12:10:04.373Z,19.34
2022-10-20T12:15:19.856Z,19.34
2022-10-20T12:20:35.349Z,19.35
2022-10-20T12:25:50.339Z,19.35
2022-10-20T12:31:05.732Z,19.34
2022-10-20T12:36:21.578Z,19.34
2022-10-20T12:41:37.643Z,19.35
2022-10-20T12:46:53.674Z,19.34
2022-10-20T12:52:09.366Z,19.35
2022-10-20T12:57:24.131Z,19.35
2022-10-20T13:02:39.243Z,19.35
2022-10-20T13:07:54.376Z,19.36
2022-10-20T13:13:09.393Z,19.35
2022-10-20T13:18:24.354Z,19.36
2022-10-20T13:23:39.406Z,19.37
2022-10-20T13:28:54.424Z,19.37
2022-10-20T13:34:09.324Z,19.36
2022-10-20T13:39:24.361Z,19.36
2022-10-20T13:44:39.340Z,19.37
2022-10-20T13:49:54.336Z,19.37
2022-10-20T13:55:09.355Z,19.38
2022-10-20T14:00:24.393Z,19.38
2022-10-20T14:05:39.386Z,19.39
2022-10-20T14:10:54.436Z,19.39
2022-10-20T14:16:09.125Z,19.40
2022-10-20T14:21:24.670Z,19.37
2022-10-20T14:26:40.394Z,19.40
2022-10-20T14:31:55.722Z,19.40
2022-10-20T14:37:11.460Z,19.41
2022-10-20T14:42:26.378Z,19.41
2022-10-20T14:47:41.359Z,19.40
2022-10-20T14:52:56.364Z,19.40
2022-10-20T14:58:11.383Z,19.40
2022-10-20T15:03:26.441Z,19.38
2022-10-20T15:08:41.498Z,19.40
2022-10-20T15:13:56.379Z,19.40
2022-10-20T15:19:11.174Z,19.41
2022-10-20T15:24:26.362Z,19.43
2022-10-20T15:29:41.407Z,19.44
2022-10-20T15:34:56.212Z,19.48
2022-10-20T15:40:11.398Z,19.48
2022-10-20T15:45:26.422Z,19.48
2022-10-20T15:50:41.390Z,19.46
2022-10-20T15:55:56.359Z,19.46
2022-10-20T16:01:11.443Z,19.46
2022-10-20T16:06:26.360Z,19.47
2022-10-20T16:11:41.264Z,19.46
2022-10-20T16:16:58.679Z,19.46
2022-10-20T16:22:14.376Z,19.46
2022-10-20T16:27:29.365Z,19.46
2022-10-20T16:32:44.672Z,19.46
2022-10-20T16:38:00.220Z,19.44
2022-10-20T16:43:15.400Z,19.45
2022-10-20T16:48:30.415Z,19.44
2022-10-20T16:53:45.702Z,19.43
2022-10-20T16:59:01.394Z,19.49
2022-10-20T17:04:17.702Z,19.58
2022-10-20T17:09:33.365Z,19.64
2022-10-20T17:14:48.191Z,19.69
2022-10-20T17:20:04.345Z,19.71
2022-10-20T17:25:19.390Z,19.73
2022-10-20T17:30:34.130Z,19.75
2022-10-20T17:35:49.437Z,19.78
2022-10-20T17:46:19.372Z,19.81
2022-10-20T17:51:34.990Z,19.80
2022-10-20T17:56:50.435Z,19.82
2022-10-20T18:02:05.664Z,19.83
2022-10-20T18:07:22.356Z,19.84
2022-10-20T18:12:37.300Z,19.84
2022-10-20T18:17:52.429Z,19.85
2022-10-20T18:23:07.395Z,19.85
2022-10-20T18:28:22.386Z,19.84
2022-10-20T18:33:37.386Z,19.86
2022-10-20T18:38:52.411Z,19.85
2022-10-20T18:44:07.717Z,19.85
2022-10-20T18:49:23.856Z,19.86
2022-10-20T18:54:39.386Z,19.87
2022-10-20T18:59:54.731Z,19.86
2022-10-20T19:05:10.663Z,19.84
2022-10-20T19:10:26.411Z,19.88
2022-10-20T19:15:41.367Z,19.90
2022-10-20T19:20:56.397Z,19.93
2022-10-20T19:26:12.725Z,19.95
2022-10-20T19:31:28.369Z,19.96
2022-10-20T19:36:43.127Z,19.98
2022-10-20T19:41:58.721Z,19.99
2022-10-20T19:47:14.439Z,19.99
2022-10-20T19:52:29.711Z,20.01
2022-10-20T19:57:45.673Z,20.02
2022-10-20T20:03:01.147Z,20.04
2022-10-20T20:08:16.709Z,20.04
2022-10-20T20:13:32.475Z,20.05
2022-10-20T20:18:47.470Z,20.06
2022-10-20T20:24:02.377Z,20.09
2022-10-20T20:29:17.423Z,20.07
2022-10-20T20:34:32.383Z,20.11
2022-10-20T20:39:47.365Z,20.11
2022-10-20T20:45:02.393Z,20.11
2022-10-20T20:50:17.370Z,20.11
2022-10-20T20:55:32.219Z,20.11
2022-10-20T21:00:47.491Z,20.11
2022-10-20T21:06:02.414Z,20.11
2022-10-20T21:11:17.745Z,20.12
2022-10-20T21:16:33.397Z,20.13
2022-10-20T21:21:48.401Z,20.13
2022-10-20T21:27:03.460Z,20.14
2022-10-20T21:32:18.425Z,20.15
2022-10-20T21:37:33.418Z,20.16
2022-10-20T21:42:48.737Z,20.17
2022-10-20T21:48:04.448Z,20.17
2022-10-20T21:53:19.413Z,20.18
2022-10-20T21:58:34.655Z,20.18
2022-10-20T22:03:50.136Z,20.19
2022-10-20T22:09:05.586Z,20.22
2022-10-20T22:14:20.782Z,20.24
2022-10-20T22:19:36.392Z,20.24
2022-10-20T22:24:51.442Z,20.24
2022-10-20T22:30:07.674Z,20.23
2022-10-20T22:35:23.442Z,20.22
2022-10-20T22:40:38.468Z,20.23
2022-10-20T22:45:53.736Z,20.23
2022-10-20T22:51:09.385Z,20.22
2022-10-20T22:56:24.403Z,20.23
2022-10-20T23:01:39.390Z,20.24
2022-10-20T23:06:54.399Z,20.26
2022-10-20T23:12:09.373Z,20.28
2022-10-20T23:17:24.653Z,20.29
2022-10-20T23:22:39.457Z,20.27
2022-10-20T23:27:54.426Z,20.28
2022-10-20T23:33:09.405Z,20.28
2022-10-20T23:38:24.671Z,20.27
2022-10-20T23:43:40.384Z,20.29
2022-10-20T23:48:55.406Z,20.29
2022-10-20T23:54:10.430Z,20.30
2022-10-20T23:59:25.424Z,20.34
